Time;durP1;ratioP1;P1;durP2;ratioP2;P2;SDS_P1;SDS_P2;PMS_P1;PMS_P2;Temp;Humidity;BMP_temperature;BMP_pressure;BME280_temperature;BME280_humidity;BME280_pressure;Samples;Min_cycle;Max_cycle;Signal;HPM_P1;HPM_P2
2023/07/04 00:00:31;;;;;;;3.20;2.70;;;18.10;99.90;;;;;;4971353;28;20520;-67
2023/07/04 00:02:59;;;;;;;2.97;2.67;;;18.10;99.90;;;;;;4973719;28;20462;-67
2023/07/04 00:05:26;;;;;;;3.57;2.70;;;18.10;99.90;;;;;;4972142;28;20634;-67
2023/07/04 00:07:53;;;;;;;2.27;2.07;;;18.10;99.90;;;;;;4970655;28;20521;-67
2023/07/04 00:10:20;;;;;;;2.83;2.63;;;18.00;99.90;;;;;;4970218;28;20577;-65
2023/07/04 00:12:48;;;;;;;3.20;2.70;;;18.00;99.90;;;;;;4971156;28;20448;-66
2023/07/04 00:15:15;;;;;;;3.33;2.57;;;18.10;99.90;;;;;;4970116;28;20487;-67
2023/07/04 00:17:43;;;;;;;2.90;2.60;;;17.90;99.90;;;;;;4971084;28;20553;-67
2023/07/04 00:20:13;;;;;;;3.90;2.47;;;17.80;99.90;;;;;;4974350;28;20491;-67
2023/07/04 00:22:40;;;;;;;3.50;2.50;;;17.80;99.90;;;;;;4971434;28;20455;-67
2023/07/04 00:25:09;;;;;;;3.43;2.40;;;17.80;99.90;;;;;;4975126;28;21014;-67
2023/07/04 00:27:36;;;;;;;2.87;2.10;;;17.70;99.90;;;;;;4971223;28;20974;-67
2023/07/04 00:30:04;;;;;;;2.93;2.53;;;17.70;99.90;;;;;;4972793;28;21014;-67
2023/07/04 00:32:32;;;;;;;3.70;2.67;;;17.70;99.90;;;;;;4971857;28;20491;-68
2023/07/04 00:34:59;;;;;;;2.73;2.53;;;17.70;99.90;;;;;;4969662;28;20459;-68
2023/07/04 00:37:31;;;;;;;3.03;2.57;;;17.70;99.90;;;;;;4972213;28;20974;-67
2023/07/04 00:40:01;;;;;;;2.30;2.10;;;17.70;99.90;;;;;;4975722;28;20527;-68
2023/07/04 00:42:29;;;;;;;2.30;2.10;;;17.70;99.90;;;;;;4969370;28;20450;-67
2023/07/04 00:44:58;;;;;;;2.70;2.43;;;17.70;99.90;;;;;;4975036;28;20465;-67
2023/07/04 00:47:33;;;;;;;2.37;2.17;;;17.70;99.90;;;;;;4970481;28;20467;-67
2023/07/04 00:50:07;;;;;;;2.53;2.23;;;17.70;99.90;;;;;;4976416;28;20529;-67
2023/07/04 00:52:38;;;;;;;3.00;2.13;;;17.70;99.90;;;;;;4968460;28;20839;-67
2023/07/04 00:55:13;;;;;;;4.87;2.10;;;17.70;99.90;;;;;;4970926;28;20470;-67
2023/07/04 00:57:40;;;;;;;3.90;2.27;;;17.80;99.90;;;;;;4971948;28;20828;-66
2023/07/04 01:00:17;;;;;;;2.83;2.10;;;17.80;99.90;;;;;;4969958;28;20577;-67
2023/07/04 01:02:48;;;;;;;3.00;2.40;;;17.80;99.90;;;;;;4977436;28;20878;-67
2023/07/04 01:05:19;;;;;;;2.60;2.10;;;17.70;99.90;;;;;;4974386;28;20454;-67
2023/07/04 01:07:53;;;;;;;2.97;2.30;;;17.70;99.90;;;;;;4968481;28;20463;-67
2023/07/04 01:10:26;;;;;;;2.50;2.13;;;17.80;99.90;;;;;;4972492;28;20518;-67
2023/07/04 01:12:53;;;;;;;2.80;2.30;;;17.90;99.90;;;;;;4970312;28;20453;-67
2023/07/04 01:15:23;;;;;;;3.60;2.20;;;17.90;99.90;;;;;;4971776;28;20481;-67
2023/07/04 01:17:51;;;;;;;5.73;2.10;;;17.80;99.90;;;;;;4976269;28;20510;-67
2023/07/04 01:20:19;;;;;;;2.33;2.13;;;17.80;99.90;;;;;;4969942;28;20536;-66
2023/07/04 01:22:57;;;;;;;4.33;2.00;;;17.70;99.90;;;;;;4969393;28;20955;-67
2023/07/04 01:25:34;;;;;;;2.30;2.10;;;17.80;99.90;;;;;;4969884;28;20495;-66
2023/07/04 01:28:04;;;;;;;2.77;2.10;;;17.80;99.90;;;;;;4970321;28;20453;-66
2023/07/04 01:30:35;;;;;;;1.97;1.83;;;17.80;99.90;;;;;;4975783;28;20483;-66
2023/07/04 01:33:02;;;;;;;2.20;1.90;;;18.30;99.90;;;;;;4972742;28;20489;-67
2023/07/04 01:35:29;;;;;;;2.20;2.00;;;17.90;99.90;;;;;;4974273;28;20815;-66
2023/07/04 01:37:59;;;;;;;2.70;2.27;;;18.00;99.90;;;;;;4974073;28;20542;-68
2023/07/04 01:40:26;;;;;;;2.40;2.20;;;18.00;99.90;;;;;;4974618;28;20574;-68
2023/07/04 01:42:54;;;;;;;3.80;2.40;;;18.00;99.90;;;;;;4974571;28;20533;-68
2023/07/04 01:45:23;;;;;;;2.93;2.20;;;18.00;99.90;;;;;;4972625;28;20458;-67
2023/07/04 01:47:50;;;;;;;2.97;2.57;;;18.00;99.90;;;;;;4972916;28;20863;-68
2023/07/04 01:50:17;;;;;;;3.20;2.80;;;18.00;99.90;;;;;;4974584;28;20518;-68
2023/07/04 01:52:45;;;;;;;3.43;2.33;;;18.00;99.90;;;;;;4976256;28;20541;-67
2023/07/04 01:55:14;;;;;;;2.47;2.27;;;18.00;99.90;;;;;;4971929;28;20472;-68
2023/07/04 01:57:41;;;;;;;4.03;2.67;;;18.00;99.90;;;;;;4975472;28;20468;-67
2023/07/04 02:00:10;;;;;;;2.67;2.47;;;17.90;99.90;;;;;;4977317;28;21018;-68
2023/07/04 02:02:39;;;;;;;2.73;2.53;;;17.90;99.90;;;;;;4972216;28;20963;-66
2023/07/04 02:05:07;;;;;;;4.47;2.90;;;17.80;99.90;;;;;;4973295;28;20545;-66
2023/07/04 02:07:34;;;;;;;2.53;2.30;;;17.90;99.90;;;;;;4972034;28;20481;-67
2023/07/04 02:10:01;;;;;;;3.03;2.73;;;17.90;99.90;;;;;;4972167;28;20545;-66
2023/07/04 02:12:28;;;;;;;3.87;2.57;;;17.90;99.90;;;;;;4973829;28;20486;-67
2023/07/04 02:14:55;;;;;;;3.10;2.87;;;17.80;99.90;;;;;;4975489;28;20477;-67
2023/07/04 02:17:22;;;;;;;3.33;2.90;;;17.80;99.90;;;;;;4972593;28;20529;-67
2023/07/04 02:19:51;;;;;;;2.97;2.50;;;17.80;99.90;;;;;;4973046;28;20539;-67
2023/07/04 02:22:19;;;;;;;3.90;2.57;;;17.80;99.90;;;;;;4979449;28;20534;-66
2023/07/04 02:24:46;;;;;;;2.77;2.50;;;17.80;99.90;;;;;;4974027;28;20493;-67
2023/07/04 02:27:13;;;;;;;2.97;2.70;;;17.80;99.90;;;;;;4972539;28;20542;-66
2023/07/04 02:29:41;;;;;;;3.23;2.80;;;17.80;99.90;;;;;;4986418;28;20482;-67
2023/07/04 02:32:08;;;;;;;4.97;2.77;;;17.80;99.90;;;;;;4974139;28;20455;-67
2023/07/04 02:34:35;;;;;;;3.43;2.53;;;17.80;99.90;;;;;;4974670;28;20470;-67
2023/07/04 02:37:04;;;;;;;2.80;2.20;;;17.80;99.90;;;;;;4975362;28;20465;-67
2023/07/04 02:39:31;;;;;;;3.93;2.20;;;17.80;99.90;;;;;;4975953;28;20478;-67
2023/07/04 02:41:58;;;;;;;2.33;2.13;;;17.80;99.90;;;;;;4974597;28;20486;-67
2023/07/04 02:44:25;;;;;;;2.40;2.20;;;17.80;99.90;;;;;;4972317;28;21173;-67
2023/07/04 02:46:53;;;;;;;2.70;2.50;;;17.80;99.90;;;;;;4977503;28;20472;-67
2023/07/04 02:49:20;;;;;;;2.83;2.40;;;17.70;99.90;;;;;;4972700;28;20994;-67
2023/07/04 02:51:47;;;;;;;3.10;2.10;;;17.80;99.90;;;;;;4971795;28;20490;-67
2023/07/04 02:54:16;;;;;;;3.30;2.30;;;17.80;99.90;;;;;;4972092;28;20474;-67
2023/07/04 02:56:43;;;;;;;2.70;2.50;;;17.80;99.90;;;;;;4972738;28;20967;-67
2023/07/04 02:59:10;;;;;;;2.97;2.60;;;17.70;99.90;;;;;;4974194;28;20470;-67
2023/07/04 03:01:37;;;;;;;3.23;2.20;;;17.70;99.90;;;;;;4977327;28;20482;-68
2023/07/04 03:04:04;;;;;;;2.50;2.30;;;17.70;99.90;;;;;;4970520;28;20455;-68
2023/07/04 03:06:32;;;;;;;2.43;2.20;;;17.70;99.90;;;;;;4971948;28;20862;-67
2023/07/04 03:08:58;;;;;;;3.80;2.60;;;17.70;99.90;;;;;;4977923;28;20485;-67
2023/07/04 03:11:27;;;;;;;2.67;2.40;;;17.60;99.90;;;;;;4971577;28;20956;-67
2023/07/04 03:13:54;;;;;;;3.20;2.43;;;17.60;99.90;;;;;;4970943;28;20461;-67
2023/07/04 03:16:21;;;;;;;2.60;2.40;;;17.50;99.90;;;;;;4970904;28;20542;-67
2023/07/04 03:18:48;;;;;;;2.73;2.40;;;17.50;99.90;;;;;;4973906;28;20486;-67
2023/07/04 03:21:16;;;;;;;2.77;2.57;;;17.50;99.90;;;;;;4979961;28;20569;-67
2023/07/04 03:23:43;;;;;;;2.60;2.33;;;17.50;99.90;;;;;;4971799;28;20479;-67
2023/07/04 03:26:10;;;;;;;2.80;2.50;;;17.40;99.90;;;;;;4971007;28;20467;-67
2023/07/04 03:28:39;;;;;;;3.17;2.40;;;17.40;99.90;;;;;;4971273;28;20545;-67
2023/07/04 03:31:06;;;;;;;2.73;2.50;;;17.40;99.90;;;;;;4972219;28;20542;-67
2023/07/04 03:33:33;;;;;;;3.33;2.70;;;17.40;99.90;;;;;;4979602;28;20463;-67
2023/07/04 03:36:01;;;;;;;4.53;2.50;;;17.40;99.90;;;;;;4971758;28;21011;-67
2023/07/04 03:38:28;;;;;;;2.70;2.50;;;17.40;99.90;;;;;;4971897;28;20538;-67
2023/07/04 03:40:55;;;;;;;4.30;2.63;;;17.40;99.90;;;;;;4976519;28;20494;-68
2023/07/04 03:43:23;;;;;;;4.47;2.40;;;17.30;99.90;;;;;;4970905;28;20467;-69
2023/07/04 03:45:52;;;;;;;4.20;2.70;;;17.30;99.90;;;;;;4975655;28;20555;-67
2023/07/04 03:48:19;;;;;;;2.73;2.53;;;17.30;99.90;;;;;;4971867;28;20491;-68
2023/07/04 03:50:46;;;;;;;2.47;2.27;;;17.30;99.90;;;;;;4971736;28;20485;-68
2023/07/04 03:53:13;;;;;;;3.40;2.70;;;17.30;99.90;;;;;;4970135;28;20463;-67
2023/07/04 03:55:41;;;;;;;3.30;2.70;;;17.30;99.90;;;;;;4970954;28;20506;-66
2023/07/04 03:58:08;;;;;;;2.70;2.50;;;17.30;99.90;;;;;;4969584;28;20591;-67
2023/07/04 04:00:35;;;;;;;2.63;2.43;;;17.20;99.90;;;;;;4971967;28;20512;-67
2023/07/04 04:03:03;;;;;;;3.00;2.70;;;17.30;99.90;;;;;;4983295;28;20459;-67
2023/07/04 04:05:31;;;;;;;2.47;2.20;;;17.40;99.90;;;;;;4971536;28;20462;-66
2023/07/04 04:07:58;;;;;;;3.00;2.70;;;17.30;99.90;;;;;;4969710;28;20470;-66
2023/07/04 04:10:25;;;;;;;3.13;2.57;;;17.30;99.90;;;;;;4970306;28;20524;-68
2023/07/04 04:12:52;;;;;;;3.30;2.40;;;17.30;99.90;;;;;;4971261;28;20552;-66
2023/07/04 04:15:19;;;;;;;3.03;2.47;;;17.40;99.90;;;;;;4973384;28;20536;-67
2023/07/04 04:17:47;;;;;;;3.07;2.73;;;17.40;99.90;;;;;;4971165;28;20525;-67
2023/07/04 04:20:16;;;;;;;2.67;2.47;;;17.40;99.90;;;;;;4971624;28;20493;-66
2023/07/04 04:22:45;;;;;;;3.10;2.17;;;17.40;99.90;;;;;;4977292;28;20470;-66
2023/07/04 04:25:12;;;;;;;3.20;2.60;;;17.40;99.90;;;;;;4970581;28;20593;-65
2023/07/04 04:27:40;;;;;;;4.53;2.67;;;17.50;99.90;;;;;;4972748;28;20895;-65
2023/07/04 04:30:10;;;;;;;2.80;2.50;;;17.50;99.90;;;;;;4971299;28;21258;-67
2023/07/04 04:32:37;;;;;;;2.60;2.40;;;17.50;99.90;;;;;;4969008;28;20454;-67
2023/07/04 04:35:08;;;;;;;4.47;2.60;;;17.60;99.90;;;;;;4970606;28;20549;-67
2023/07/04 04:37:37;;;;;;;2.90;2.30;;;17.60;99.90;;;;;;4969631;28;22222;-68
2023/07/04 04:40:05;;;;;;;3.27;2.83;;;17.70;99.90;;;;;;4975766;28;20490;-68
2023/07/04 04:42:34;;;;;;;2.40;2.20;;;17.70;99.90;;;;;;4970050;28;20792;-67
2023/07/04 04:45:02;;;;;;;3.07;2.40;;;17.80;99.90;;;;;;4972579;28;20459;-67
2023/07/04 04:47:32;;;;;;;2.43;2.23;;;17.80;99.90;;;;;;4970060;28;20883;-67
2023/07/04 04:50:01;;;;;;;3.27;2.33;;;17.80;99.90;;;;;;4976026;28;21010;-68
2023/07/04 04:52:30;;;;;;;2.70;2.50;;;17.90;99.90;;;;;;4970604;28;20512;-69
2023/07/04 04:55:00;;;;;;;2.70;2.50;;;18.00;99.90;;;;;;4971246;28;20541;-69
2023/07/04 04:57:28;;;;;;;3.17;2.87;;;18.00;99.90;;;;;;4972610;28;20454;-81
2023/07/04 04:59:56;;;;;;;2.70;2.50;;;18.00;99.90;;;;;;4969176;28;20479;-68
2023/07/04 05:02:24;;;;;;;3.57;2.57;;;18.00;99.90;;;;;;4968803;28;20517;-69
2023/07/04 05:04:51;;;;;;;2.47;2.17;;;18.10;99.90;;;;;;4973933;28;20811;-69
2023/07/04 05:07:23;;;;;;;3.20;2.53;;;18.30;99.90;;;;;;4972999;28;20463;-69
2023/07/04 05:09:52;;;;;;;2.30;2.10;;;18.20;99.90;;;;;;4974392;28;20471;-69
2023/07/04 05:12:21;;;;;;;3.37;2.33;;;18.30;99.90;;;;;;4976119;28;20537;-69
2023/07/04 05:14:48;;;;;;;2.80;2.47;;;18.40;99.90;;;;;;4974425;28;20482;-69
2023/07/04 05:17:16;;;;;;;2.83;2.30;;;18.40;99.90;;;;;;4978102;28;20462;-69
2023/07/04 05:19:44;;;;;;;4.10;2.60;;;18.40;99.90;;;;;;4974677;28;20483;-69
2023/07/04 05:22:10;;;;;;;2.77;2.20;;;18.50;99.90;;;;;;4973338;28;20522;-68
2023/07/04 05:24:38;;;;;;;2.77;2.40;;;18.50;99.90;;;;;;4975675;28;20967;-69
2023/07/04 05:27:05;;;;;;;2.60;2.27;;;18.50;99.90;;;;;;4974645;28;20469;-69
2023/07/04 05:29:33;;;;;;;3.07;2.30;;;18.60;99.90;;;;;;4976478;28;20482;-70
2023/07/04 05:32:01;;;;;;;2.40;2.10;;;18.70;99.90;;;;;;4973321;28;20484;-68
2023/07/04 05:34:28;;;;;;;2.17;1.97;;;18.90;99.90;;;;;;4974103;28;20465;-68
2023/07/04 05:36:55;;;;;;;2.33;2.13;;;18.70;99.90;;;;;;4974027;28;20450;-68
2023/07/04 05:39:22;;;;;;;2.47;2.27;;;18.80;99.90;;;;;;4972622;28;20490;-68
2023/07/04 05:41:49;;;;;;;2.73;1.97;;;18.80;99.90;;;;;;4973768;28;20561;-68
2023/07/04 05:44:17;;;;;;;3.27;2.30;;;18.80;99.90;;;;;;4973413;28;20536;-68
2023/07/04 05:46:45;;;;;;;3.63;2.60;;;18.90;99.90;;;;;;4975273;28;20597;-67
2023/07/04 05:49:12;;;;;;;3.50;2.37;;;18.90;99.90;;;;;;4979872;28;20478;-68
2023/07/04 05:51:39;;;;;;;2.97;2.33;;;19.00;99.90;;;;;;4973794;28;20485;-68
2023/07/04 05:54:06;;;;;;;5.20;2.23;;;19.10;99.90;;;;;;4973356;28;20458;-68
2023/07/04 05:56:33;;;;;;;3.10;2.30;;;19.20;99.90;;;;;;4972044;28;20463;-69
2023/07/04 05:59:02;;;;;;;4.53;2.47;;;19.30;99.90;;;;;;4978324;28;20477;-68
2023/07/04 06:01:32;;;;;;;2.60;2.23;;;19.40;99.90;;;;;;4973390;28;20532;-69
2023/07/04 06:04:02;;;;;;;2.77;2.40;;;19.50;99.90;;;;;;4973787;28;20463;-69
2023/07/04 06:06:32;;;;;;;3.10;2.23;;;19.70;99.90;;;;;;4973058;28;20461;-68
2023/07/04 06:09:01;;;;;;;2.77;2.27;;;19.80;99.90;;;;;;4974628;28;20480;-68
2023/07/04 06:11:32;;;;;;;2.60;2.17;;;19.90;99.90;;;;;;4977402;28;20496;-68
2023/07/04 06:13:59;;;;;;;4.27;2.40;;;20.00;99.90;;;;;;4970726;28;20524;-68
2023/07/04 06:16:26;;;;;;;4.30;2.50;;;20.10;99.90;;;;;;4973018;28;20964;-68
2023/07/04 06:18:53;;;;;;;4.43;3.00;;;20.20;99.90;;;;;;4973244;28;20571;-68
2023/07/04 06:21:23;;;;;;;4.40;2.40;;;20.30;99.90;;;;;;4972711;28;20493;-68
2023/07/04 06:23:51;;;;;;;6.60;2.37;;;20.40;99.90;;;;;;4977179;28;20465;-68
2023/07/04 06:26:18;;;;;;;12.40;3.53;;;20.60;99.90;;;;;;4974098;28;20483;-69
2023/07/04 06:28:45;;;;;;;5.50;3.00;;;20.70;99.90;;;;;;4972245;28;20474;-68
2023/07/04 06:31:14;;;;;;;6.83;2.90;;;20.80;99.90;;;;;;4972586;28;20489;-68
2023/07/04 06:33:42;;;;;;;4.73;2.97;;;20.80;99.90;;;;;;4977620;28;20489;-68
2023/07/04 06:36:10;;;;;;;4.70;2.63;;;20.80;99.90;;;;;;4973510;28;20477;-68
2023/07/04 06:38:39;;;;;;;4.50;2.90;;;20.80;99.90;;;;;;4972297;28;20454;-66
2023/07/04 06:41:10;;;;;;;7.97;3.13;;;20.80;99.90;;;;;;4972641;28;20486;-68
2023/07/04 06:43:38;;;;;;;4.13;3.10;;;20.90;99.90;;;;;;4976625;28;20937;-69
2023/07/04 06:46:05;;;;;;;4.80;2.80;;;21.00;99.90;;;;;;4972482;28;20456;-68
2023/07/04 06:48:32;;;;;;;4.13;2.53;;;21.00;99.90;;;;;;4975159;28;20867;-68
2023/07/04 06:51:01;;;;;;;4.40;3.13;;;21.10;99.90;;;;;;4976704;28;20477;-69
2023/07/04 06:53:29;;;;;;;6.77;3.00;;;21.20;99.90;;;;;;4973160;28;20985;-68
2023/07/04 06:56:07;;;;;;;3.47;3.17;;;21.20;99.90;;;;;;4973716;28;20546;-69
2023/07/04 06:58:35;;;;;;;5.70;2.93;;;21.30;99.90;;;;;;4971260;28;20550;-68
2023/07/04 07:01:03;;;;;;;3.53;2.60;;;21.50;99.90;;;;;;4974345;28;20482;-68
2023/07/04 07:03:30;;;;;;;4.03;3.10;;;21.20;99.90;;;;;;4972634;28;20473;-68
2023/07/04 07:05:57;;;;;;;4.60;3.57;;;21.20;99.90;;;;;;4975196;28;20458;-68
2023/07/04 07:08:24;;;;;;;3.80;2.77;;;21.30;99.90;;;;;;4973352;28;20450;-68
2023/07/04 07:10:53;;;;;;;4.60;3.20;;;21.30;99.90;;;;;;4971908;28;20496;-68
2023/07/04 07:13:22;;;;;;;3.87;2.70;;;21.20;99.90;;;;;;4980334;28;20455;-68
2023/07/04 07:15:48;;;;;;;4.20;2.97;;;21.20;99.90;;;;;;4974009;28;20462;-68
2023/07/04 07:18:16;;;;;;;5.73;3.87;;;21.30;99.90;;;;;;4973298;28;20998;-68
2023/07/04 07:20:43;;;;;;;5.33;3.20;;;21.30;99.90;;;;;;4977979;28;20454;-68
2023/07/04 07:23:10;;;;;;;3.93;3.03;;;21.40;99.90;;;;;;4973068;28;20888;-68
2023/07/04 07:25:37;;;;;;;3.70;3.20;;;21.30;99.90;;;;;;4971694;28;20495;-68
2023/07/04 07:28:05;;;;;;;5.97;2.90;;;21.30;99.90;;;;;;4971214;28;20490;-68
2023/07/04 07:30:33;;;;;;;3.70;3.10;;;21.30;99.90;;;;;;4970624;28;20521;-68
2023/07/04 07:33:00;;;;;;;5.60;3.30;;;21.30;99.90;;;;;;4971096;28;20455;-67
2023/07/04 07:35:30;;;;;;;5.80;4.10;;;21.30;99.90;;;;;;4972251;28;20462;-68
2023/07/04 07:37:57;;;;;;;8.63;3.00;;;21.20;99.90;;;;;;4977440;28;20457;-68
2023/07/04 07:40:26;;;;;;;8.40;3.23;;;21.20;99.90;;;;;;4979518;28;20469;-68
2023/07/04 07:42:54;;;;;;;6.23;3.40;;;21.30;99.90;;;;;;4975997;28;20479;-68
2023/07/04 07:45:21;;;;;;;5.87;3.27;;;21.30;99.90;;;;;;4970755;28;20455;-68
2023/07/04 07:47:49;;;;;;;4.43;3.67;;;21.40;99.90;;;;;;4971020;28;20456;-68
2023/07/04 07:50:17;;;;;;;3.80;3.20;;;21.60;99.90;;;;;;4971129;28;20478;-69
2023/07/04 07:52:44;;;;;;;4.73;2.90;;;21.80;99.90;;;;;;4971026;28;20533;-68
2023/07/04 07:55:11;;;;;;;5.30;3.60;;;21.90;99.90;;;;;;4970277;28;20482;-69
2023/07/04 07:57:38;;;;;;;4.93;3.00;;;22.10;99.90;;;;;;4971667;28;20469;-69
2023/07/04 08:00:06;;;;;;;5.30;3.13;;;22.20;99.90;;;;;;4971065;28;20479;-68
2023/07/04 08:02:33;;;;;;;5.93;3.20;;;22.20;99.90;;;;;;4973677;28;21013;-69
2023/07/04 08:05:02;;;;;;;6.17;3.30;;;22.40;99.90;;;;;;4971802;28;20446;-69
2023/07/04 08:07:29;;;;;;;4.00;3.60;;;22.50;99.90;;;;;;4972460;28;20522;-68
2023/07/04 08:09:58;;;;;;;5.97;3.73;;;22.50;99.90;;;;;;4971140;28;20569;-69
2023/07/04 08:12:26;;;;;;;3.80;3.00;;;22.50;99.90;;;;;;4971242;28;20455;-68
2023/07/04 08:14:53;;;;;;;4.53;3.50;;;22.50;99.90;;;;;;4970587;28;20486;-68
2023/07/04 08:17:21;;;;;;;5.27;3.70;;;22.60;99.90;;;;;;4971537;28;20961;-68
2023/07/04 08:19:48;;;;;;;6.73;3.77;;;22.50;99.90;;;;;;4971489;28;20491;-68
2023/07/04 08:22:16;;;;;;;4.30;3.70;;;22.50;99.90;;;;;;4970450;28;20505;-68
2023/07/04 08:24:44;;;;;;;6.07;3.90;;;22.50;99.90;;;;;;4974667;28;20447;-69
2023/07/04 08:27:11;;;;;;;5.80;3.60;;;22.60;99.90;;;;;;4971634;28;20458;-68
2023/07/04 08:29:38;;;;;;;5.10;3.37;;;22.60;99.90;;;;;;4970684;28;20553;-68
2023/07/04 08:32:06;;;;;;;5.73;3.57;;;22.60;99.90;;;;;;4972590;28;20867;-69
2023/07/04 08:34:33;;;;;;;5.30;3.60;;;22.60;99.90;;;;;;4976919;28;20466;-69
2023/07/04 08:37:00;;;;;;;4.00;3.60;;;22.70;99.90;;;;;;4969807;28;20459;-70
2023/07/04 08:39:29;;;;;;;6.07;4.40;;;22.80;99.90;;;;;;4974599;28;21397;-70
2023/07/04 08:41:59;;;;;;;9.00;4.37;;;23.00;99.90;;;;;;4974379;28;20495;-69
2023/07/04 08:44:33;;;;;;;6.70;4.00;;;23.10;99.90;;;;;;4974941;28;20982;-69
2023/07/04 08:47:01;;;;;;;7.00;3.97;;;23.50;99.90;;;;;;4975484;28;20468;-69
2023/07/04 08:49:38;;;;;;;6.37;3.70;;;23.70;99.90;;;;;;4975839;28;20481;-69
2023/07/04 08:52:09;;;;;;;4.93;4.10;;;23.70;99.90;;;;;;4978838;28;20529;-69
2023/07/04 08:54:38;;;;;;;5.33;4.07;;;23.40;99.90;;;;;;4975569;28;20459;-70
2023/07/04 08:57:19;;;;;;;5.67;4.40;;;23.20;99.90;;;;;;4973808;28;20553;-69
2023/07/04 08:59:52;;;;;;;7.70;4.10;;;22.90;99.90;;;;;;4974680;28;20510;-69
2023/07/04 09:02:36;;;;;;;4.80;3.50;;;22.80;99.90;;;;;;4974687;28;20537;-69
2023/07/04 09:05:12;;;;;;;6.93;4.20;;;22.60;99.90;;;;;;4975178;28;21024;-69
2023/07/04 09:07:48;;;;;;;5.40;4.00;;;22.30;99.90;;;;;;4976382;28;20830;-69
2023/07/04 09:10:25;;;;;;;5.10;4.30;;;22.40;99.90;;;;;;4979333;28;20486;-69
2023/07/04 09:12:53;;;;;;;6.03;3.50;;;22.70;99.90;;;;;;4974193;28;20447;-69
2023/07/04 09:15:28;;;;;;;7.13;4.10;;;23.10;99.90;;;;;;4977199;28;20461;-69
2023/07/04 09:18:04;;;;;;;8.17;4.20;;;23.40;99.90;;;;;;4975804;28;20493;-69
2023/07/04 09:20:34;;;;;;;6.77;3.73;;;23.40;99.90;;;;;;4979053;28;20498;-69
2023/07/04 09:23:06;;;;;;;5.23;3.80;;;23.30;99.90;;;;;;4974123;28;20993;-69
2023/07/04 09:25:34;;;;;;;5.30;3.90;;;23.30;99.90;;;;;;4974153;28;20469;-69
2023/07/04 09:28:02;;;;;;;5.67;4.20;;;23.20;99.90;;;;;;4974029;28;21129;-69
2023/07/04 09:30:29;;;;;;;6.47;4.53;;;23.00;99.90;;;;;;4973608;28;20994;-69
2023/07/04 09:32:56;;;;;;;6.27;4.47;;;23.20;99.90;;;;;;4972259;28;20461;-69
2023/07/04 09:35:23;;;;;;;4.90;4.40;;;23.40;99.90;;;;;;4973259;28;20459;-69
2023/07/04 09:37:58;;;;;;;4.80;4.30;;;23.40;99.90;;;;;;4973685;28;20728;-69
2023/07/04 09:40:43;;;;;;;5.83;4.67;;;23.60;99.90;;;;;;4974002;28;20557;-69
2023/07/04 09:43:10;;;;;;;7.23;4.73;;;23.80;99.90;;;;;;4976122;28;20490;-69
2023/07/04 09:45:38;;;;;;;6.90;4.97;;;23.90;99.90;;;;;;4972675;28;20458;-69
2023/07/04 09:48:07;;;;;;;7.03;5.10;;;24.00;99.90;;;;;;4976488;28;20491;-68
2023/07/04 09:50:37;;;;;;;12.23;11.03;;;24.10;99.90;;;;;;4973414;28;20590;-69
2023/07/04 09:53:09;;;;;;;6.50;5.90;;;24.30;99.90;;;;;;4972711;28;20480;-69
2023/07/04 09:55:38;;;;;;;6.80;5.10;;;24.40;99.90;;;;;;4973365;28;21027;-69
2023/07/04 09:58:18;;;;;;;7.03;5.67;;;24.70;99.90;;;;;;4977194;28;20535;-69
2023/07/04 10:00:46;;;;;;;5.60;4.60;;;24.70;99.90;;;;;;4973257;28;20471;-69
2023/07/04 10:03:17;;;;;;;6.77;5.13;;;24.80;99.90;;;;;;4978046;28;20486;-69
2023/07/04 10:05:49;;;;;;;5.57;5.00;;;25.10;99.90;;;;;;4972906;28;20458;-69
2023/07/04 10:08:17;;;;;;;6.80;5.20;;;25.40;99.90;;;;;;4978033;28;20916;-69
2023/07/04 10:10:52;;;;;;;5.97;5.37;;;25.90;99.90;;;;;;4976130;28;20474;-70
2023/07/04 10:13:25;;;;;;;7.63;5.10;;;26.30;98.40;;;;;;4977185;28;20513;-70
2023/07/04 10:15:52;;;;;;;5.50;4.50;;;26.40;97.50;;;;;;4974072;28;20451;-69
2023/07/04 10:18:28;;;;;;;5.50;5.00;;;26.60;97.10;;;;;;4978347;28;20557;-69
2023/07/04 10:20:58;;;;;;;6.23;5.40;;;26.20;96.60;;;;;;4974355;28;20545;-69
2023/07/04 10:23:27;;;;;;;6.00;5.40;;;26.50;96.40;;;;;;4979050;28;20494;-69
2023/07/04 10:25:55;;;;;;;8.70;7.90;;;26.70;95.40;;;;;;4971953;28;20487;-69
2023/07/04 10:28:27;;;;;;;7.93;5.40;;;27.10;94.80;;;;;;4978116;28;20538;-69
2023/07/04 10:30:58;;;;;;;7.00;5.83;;;27.10;94.80;;;;;;4973512;28;20954;-69
2023/07/04 10:33:29;;;;;;;5.93;5.33;;;27.40;94.30;;;;;;4972438;28;20888;-69
2023/07/04 10:35:57;;;;;;;6.50;5.47;;;27.50;93.30;;;;;;4973953;28;20458;-69
2023/07/04 10:38:38;;;;;;;6.67;5.40;;;28.10;92.20;;;;;;4972124;28;20572;-68
2023/07/04 10:41:16;;;;;;;8.27;5.53;;;28.30;90.90;;;;;;4971569;28;20467;-70
2023/07/04 10:43:57;;;;;;;5.27;4.77;;;28.70;90.20;;;;;;4971722;28;20475;-70
2023/07/04 10:46:28;;;;;;;6.33;5.70;;;29.00;88.20;;;;;;4972968;28;20531;-68
2023/07/04 10:49:00;;;;;;;6.33;5.77;;;29.30;87.00;;;;;;4977870;28;20475;-70
2023/07/04 10:51:31;;;;;;;6.37;5.77;;;29.40;83.00;;;;;;4974521;28;20458;-71
2023/07/04 10:53:58;;;;;;;6.10;5.60;;;28.90;83.50;;;;;;4984099;28;20485;-68
2023/07/04 10:56:29;;;;;;;8.53;6.37;;;28.70;83.30;;;;;;4972661;28;20486;-67
2023/07/04 10:59:05;;;;;;;6.97;6.37;;;28.50;82.20;;;;;;4977839;28;20467;-69
2023/07/04 11:01:37;;;;;;;6.20;5.60;;;27.80;83.40;;;;;;4972924;28;20462;-69
2023/07/04 11:04:10;;;;;;;7.73;6.93;;;27.50;85.80;;;;;;4977491;28;20585;-68
2023/07/04 11:06:42;;;;;;;7.43;6.17;;;27.10;87.40;;;;;;4974156;28;20462;-69
2023/07/04 11:09:14;;;;;;;6.83;6.17;;;26.70;86.80;;;;;;4971664;28;20578;-70
2023/07/04 11:11:45;;;;;;;6.40;5.73;;;26.30;90.00;;;;;;4975224;28;20962;-70
2023/07/04 11:14:18;;;;;;;6.83;6.10;;;26.10;90.30;;;;;;4978772;28;20795;-70
2023/07/04 11:16:46;;;;;;;7.27;6.40;;;25.90;90.10;;;;;;4974073;28;20469;-70
2023/07/04 11:19:19;;;;;;;6.40;5.80;;;25.80;89.60;;;;;;4971989;28;20479;-70
2023/07/04 11:22:14;;;;;;;6.90;6.27;;;25.50;90.20;;;;;;4974612;28;20465;-67
2023/07/04 11:24:46;;;;;;;7.70;6.90;;;25.20;91.20;;;;;;4972224;28;20544;-70
2023/07/04 11:27:15;;;;;;;7.00;6.13;;;25.10;90.60;;;;;;4971989;28;20473;-69
2023/07/04 11:29:52;;;;;;;6.80;6.20;;;25.20;90.90;;;;;;4979761;28;20484;-70
2023/07/04 11:32:25;;;;;;;6.83;6.13;;;25.80;90.30;;;;;;4970839;28;20455;-70
2023/07/04 11:34:54;;;;;;;6.63;6.03;;;26.20;90.10;;;;;;4975174;28;20537;-70
2023/07/04 11:37:31;;;;;;;6.70;6.00;;;26.40;90.40;;;;;;4971401;28;20807;-70
2023/07/04 11:40:02;;;;;;;6.93;6.27;;;26.90;87.90;;;;;;4974468;28;20506;-67
2023/07/04 11:42:38;;;;;;;7.60;6.80;;;26.90;88.00;;;;;;4971132;28;20475;-69
2023/07/04 11:45:12;;;;;;;6.13;5.53;;;27.00;85.80;;;;;;4973691;28;20467;-69
2023/07/04 11:47:43;;;;;;;8.17;5.93;;;27.30;85.90;;;;;;4972465;28;20978;-69
2023/07/04 11:50:16;;;;;;;6.70;6.07;;;27.90;83.00;;;;;;4974319;28;21075;-69
2023/07/04 11:52:49;;;;;;;6.50;5.90;;;28.70;81.40;;;;;;4971311;28;21233;-69
2023/07/04 11:55:22;;;;;;;9.03;5.97;;;29.20;81.70;;;;;;4973978;28;20569;-69
2023/07/04 11:58:17;;;;;;;6.60;6.00;;;30.20;76.80;;;;;;4971536;28;20924;-69
2023/07/04 12:01:08;;;;;;;7.13;6.43;;;30.50;75.10;;;;;;4969792;28;20597;-69
2023/07/04 12:04:04;;;;;;;6.93;6.33;;;30.10;75.10;;;;;;4971735;28;20482;-69
2023/07/04 12:06:56;;;;;;;6.00;5.50;;;29.20;76.40;;;;;;4972064;28;20550;-69
2023/07/04 12:09:30;;;;;;;7.03;5.87;;;28.10;78.10;;;;;;4975036;28;20478;-68
2023/07/04 12:11:59;;;;;;;6.93;5.83;;;26.90;80.40;;;;;;4970788;28;20467;-69
2023/07/04 12:14:26;;;;;;;7.80;6.17;;;26.40;80.90;;;;;;4975323;28;20957;-69
2023/07/04 12:16:57;;;;;;;6.90;6.20;;;26.20;82.90;;;;;;4971075;28;21459;-70
2023/07/04 12:19:25;;;;;;;6.27;5.67;;;26.00;82.50;;;;;;4975333;28;20506;-70
2023/07/04 12:21:52;;;;;;;6.13;5.40;;;25.90;83.70;;;;;;4969846;28;20452;-70
2023/07/04 12:24:22;;;;;;;6.47;5.77;;;25.80;83.00;;;;;;4974903;28;20493;-70
2023/07/04 12:26:57;;;;;;;6.00;5.40;;;26.10;83.20;;;;;;4972748;28;20822;-70
2023/07/04 12:29:25;;;;;;;6.37;5.13;;;27.20;81.70;;;;;;4976159;28;20474;-67
2023/07/04 12:32:08;;;;;;;7.27;6.00;;;27.50;80.20;;;;;;4974837;28;20812;-70
2023/07/04 12:34:36;;;;;;;7.10;5.40;;;27.90;77.50;;;;;;4975103;28;20458;-70
2023/07/04 12:37:05;;;;;;;5.90;5.40;;;27.80;78.70;;;;;;4972175;28;20815;-70
2023/07/04 12:39:43;;;;;;;6.47;5.77;;;28.00;78.70;;;;;;4973684;28;21112;-70
2023/07/04 12:42:17;;;;;;;7.20;5.77;;;27.90;77.50;;;;;;4970604;28;20474;-70
2023/07/04 12:44:44;;;;;;;6.10;5.30;;;27.60;78.00;;;;;;4974675;28;20474;-69
2023/07/04 12:47:18;;;;;;;6.10;5.50;;;27.90;78.10;;;;;;4970966;28;20819;-69
2023/07/04 12:49:46;;;;;;;5.40;4.90;;;28.00;75.10;;;;;;4970326;28;20481;-70
2023/07/04 12:52:14;;;;;;;5.80;5.17;;;27.80;74.40;;;;;;4971607;28;20876;-69
2023/07/04 12:54:41;;;;;;;5.20;4.80;;;27.40;73.90;;;;;;4970888;28;20534;-69
2023/07/04 12:57:15;;;;;;;5.63;5.17;;;27.40;75.00;;;;;;4970953;28;20590;-69